Time;durP1;ratioP1;P1;durP2;ratioP2;P2;SDS_P1;SDS_P2;PMS_P1;PMS_P2;Temp;Humidity;BMP_temperature;BMP_pressure;BME280_temperature;BME280_humidity;BME280_pressure;Samples;Min_cycle;Max_cycle;Signal;HPM_P1;HPM_P2
2021/05/20 00:01:51;;;;;;;2.23;0.97;;;12.50;99.90;;;;;;5055256;28;20453;-73
2021/05/20 00:04:17;;;;;;;1.97;1.40;;;12.40;99.90;;;;;;5052044;28;20183;-73
2021/05/20 00:06:42;;;;;;;1.17;1.17;;;12.40;99.90;;;;;;5055801;28;20465;-73
2021/05/20 00:09:08;;;;;;;0.90;0.90;;;12.30;99.90;;;;;;5017040;28;20651;-73
2021/05/20 00:11:34;;;;;;;0.90;0.90;;;12.30;99.90;;;;;;5033648;28;20207;-73
2021/05/20 00:14:00;;;;;;;1.80;1.43;;;12.30;99.90;;;;;;5036095;28;20211;-73
2021/05/20 00:16:25;;;;;;;1.03;0.93;;;12.30;99.90;;;;;;5020276;28;20192;-73
2021/05/20 00:18:51;;;;;;;1.13;0.87;;;12.30;99.90;;;;;;5019605;28;20200;-73
2021/05/20 00:21:17;;;;;;;1.10;1.00;;;12.30;99.90;;;;;;5070739;28;20203;-73
2021/05/20 00:23:43;;;;;;;1.43;0.87;;;12.40;99.90;;;;;;5036759;28;20266;-73
2021/05/20 00:26:13;;;;;;;0.83;0.80;;;12.40;99.90;;;;;;5037025;28;20465;-73
2021/05/20 00:28:42;;;;;;;1.10;1.00;;;12.40;99.90;;;;;;5032697;28;20183;-73
2021/05/20 00:31:08;;;;;;;1.40;1.30;;;12.40;99.90;;;;;;5044969;28;20453;-73
2021/05/20 00:33:34;;;;;;;1.10;1.10;;;12.30;99.90;;;;;;5052953;28;20895;-73
2021/05/20 00:35:59;;;;;;;1.00;0.93;;;12.30;99.90;;;;;;5044802;28;20515;-73
2021/05/20 00:38:25;;;;;;;3.87;1.20;;;12.30;99.90;;;;;;5014687;28;20189;-73
2021/05/20 00:41:00;;;;;;;1.27;1.17;;;12.20;99.90;;;;;;5060059;28;20276;-73
2021/05/20 00:43:27;;;;;;;1.50;1.40;;;12.20;99.90;;;;;;5056622;28;20170;-74
2021/05/20 00:45:53;;;;;;;1.83;1.50;;;12.20;99.90;;;;;;5061448;28;20446;-73
2021/05/20 00:48:20;;;;;;;1.33;1.23;;;12.20;99.90;;;;;;5035645;28;20460;-73
2021/05/20 00:50:46;;;;;;;1.30;1.20;;;12.20;99.90;;;;;;5070654;28;20433;-73
2021/05/20 00:53:12;;;;;;;0.77;0.77;;;12.20;99.90;;;;;;5035518;28;20445;-73
2021/05/20 00:55:39;;;;;;;1.17;1.00;;;12.20;99.90;;;;;;5017612;28;20487;-73
2021/05/20 00:58:06;;;;;;;1.77;0.90;;;12.20;99.90;;;;;;5042420;28;20438;-73
2021/05/20 01:00:32;;;;;;;1.63;1.10;;;12.20;99.90;;;;;;5047996;28;20449;-73
2021/05/20 01:02:59;;;;;;;1.83;1.07;;;12.20;99.90;;;;;;5026171;28;20471;-73
2021/05/20 01:05:25;;;;;;;1.03;0.93;;;12.20;99.90;;;;;;5048120;28;20441;-73
2021/05/20 01:07:51;;;;;;;0.90;0.80;;;12.20;99.90;;;;;;5056515;28;20461;-73
2021/05/20 01:10:17;;;;;;;0.77;0.77;;;12.20;99.90;;;;;;5039133;28;20457;-73
2021/05/20 01:12:42;;;;;;;0.60;0.60;;;12.30;99.90;;;;;;5075820;28;20187;-73
2021/05/20 01:15:28;;;;;;;0.90;0.90;;;12.30;99.90;;;;;;5034370;28;20184;-73
2021/05/20 01:17:59;;;;;;;1.03;0.80;;;12.30;99.90;;;;;;5053179;28;20632;-73
2021/05/20 01:20:45;;;;;;;1.10;1.00;;;12.30;99.90;;;;;;5052780;28;20496;-72
2021/05/20 01:23:12;;;;;;;1.03;0.83;;;12.30;99.90;;;;;;5035980;28;20425;-73
2021/05/20 01:25:40;;;;;;;0.70;0.70;;;12.30;99.90;;;;;;5036501;28;20461;-73
2021/05/20 01:28:11;;;;;;;1.10;1.00;;;12.30;99.90;;;;;;5053812;28;20532;-73
2021/05/20 01:30:39;;;;;;;1.20;1.10;;;12.30;99.90;;;;;;5063916;28;21007;-73
2021/05/20 01:33:05;;;;;;;1.10;1.00;;;12.20;99.90;;;;;;5023542;28;20421;-73
2021/05/20 01:35:31;;;;;;;1.10;0.70;;;12.20;99.90;;;;;;5056277;28;20418;-73
2021/05/20 01:40:53;;;;;;;1.23;1.13;;;12.20;99.90;;;;;;5058211;28;20290;-73
2021/05/20 01:43:19;;;;;;;1.00;0.90;;;12.20;99.90;;;;;;5081773;28;20421;-73
2021/05/20 01:45:49;;;;;;;0.97;0.90;;;12.20;99.90;;;;;;5056318;28;20779;-73
2021/05/20 01:48:15;;;;;;;1.00;1.00;;;12.20;99.90;;;;;;5060885;28;20452;-73
2021/05/20 01:50:41;;;;;;;1.30;0.83;;;12.10;99.90;;;;;;5038965;28;20540;-73
2021/05/20 01:53:07;;;;;;;0.77;0.77;;;12.20;99.90;;;;;;5038757;28;20545;-73
2021/05/20 01:55:33;;;;;;;1.37;1.30;;;12.10;99.90;;;;;;5047395;28;20750;-73
2021/05/20 01:57:58;;;;;;;1.43;1.33;;;12.10;99.90;;;;;;5055578;28;20565;-73
2021/05/20 02:00:24;;;;;;;1.60;1.00;;;12.10;99.90;;;;;;5029764;28;20714;-73
2021/05/20 02:02:49;;;;;;;1.20;1.10;;;12.10;99.90;;;;;;5067041;28;20635;-73
2021/05/20 02:05:16;;;;;;;1.57;1.20;;;12.10;99.90;;;;;;5037160;28;20640;-73
2021/05/20 02:07:42;;;;;;;1.50;1.30;;;12.10;99.90;;;;;;5023744;28;20210;-73
2021/05/20 02:10:08;;;;;;;2.30;1.40;;;12.10;99.90;;;;;;5065389;28;20458;-73
2021/05/20 02:12:34;;;;;;;1.53;1.43;;;12.00;99.90;;;;;;5057775;28;20674;-72
2021/05/20 02:14:59;;;;;;;1.20;1.10;;;12.00;99.90;;;;;;5053637;28;20434;-73
2021/05/20 02:17:25;;;;;;;2.90;1.00;;;11.90;99.90;;;;;;5058418;28;20674;-73
2021/05/20 02:19:50;;;;;;;1.13;1.00;;;11.90;99.90;;;;;;5034837;28;20674;-73
2021/05/20 02:22:16;;;;;;;1.50;1.40;;;11.80;99.90;;;;;;5068855;28;20193;-73
2021/05/20 02:24:42;;;;;;;2.57;1.63;;;11.80;99.90;;;;;;5052084;28;20287;-73
2021/05/20 02:27:08;;;;;;;1.20;1.10;;;11.80;99.90;;;;;;5051903;28;20305;-73
2021/05/20 02:29:34;;;;;;;1.37;1.20;;;11.80;99.90;;;;;;5068555;28;20470;-73
2021/05/20 02:31:59;;;;;;;1.57;1.47;;;11.70;99.90;;;;;;5051668;28;20195;-73
2021/05/20 02:34:25;;;;;;;1.60;1.50;;;11.70;99.90;;;;;;5067332;28;20191;-73
2021/05/20 02:36:51;;;;;;;1.83;1.63;;;11.70;99.90;;;;;;5070612;28;20186;-72
2021/05/20 02:39:18;;;;;;;0.83;0.80;;;11.60;99.90;;;;;;5050963;28;20188;-73
2021/05/20 02:41:45;;;;;;;2.37;2.23;;;11.60;99.90;;;;;;5062794;28;20449;-72
2021/05/20 02:44:10;;;;;;;1.23;1.10;;;11.70;99.90;;;;;;5055281;28;20413;-73
2021/05/20 02:46:37;;;;;;;1.90;1.23;;;11.70;99.90;;;;;;5021635;28;20499;-73
2021/05/20 02:49:03;;;;;;;1.30;1.00;;;11.60;99.90;;;;;;5038524;28;20180;-73
2021/05/20 02:51:30;;;;;;;1.10;1.00;;;11.60;99.90;;;;;;5037312;28;20536;-72
2021/05/20 02:53:55;;;;;;;1.37;1.10;;;11.60;99.90;;;;;;5072303;28;20445;-74
2021/05/20 02:56:21;;;;;;;1.00;1.00;;;11.50;99.90;;;;;;5035445;28;20528;-75
2021/05/20 02:58:47;;;;;;;1.00;0.93;;;11.50;99.90;;;;;;5068199;28;20212;-75
2021/05/20 03:01:13;;;;;;;1.43;1.07;;;11.50;99.90;;;;;;5034521;28;20215;-75
2021/05/20 03:03:38;;;;;;;0.93;0.90;;;11.50;99.90;;;;;;5067832;28;20184;-75
2021/05/20 03:06:04;;;;;;;1.10;1.00;;;11.50;99.90;;;;;;5070353;28;20430;-74
2021/05/20 03:08:30;;;;;;;6.20;5.70;;;11.50;99.90;;;;;;5046682;28;20179;-74
2021/05/20 03:10:56;;;;;;;1.37;1.27;;;11.50;99.90;;;;;;5036959;28;20235;-75
2021/05/20 03:13:22;;;;;;;2.07;1.77;;;11.50;99.90;;;;;;5071619;28;20328;-75
2021/05/20 03:15:48;;;;;;;1.33;1.23;;;11.50;99.90;;;;;;5034817;28;20965;-74
2021/05/20 03:18:14;;;;;;;1.33;1.10;;;11.50;99.90;;;;;;5041234;28;20188;-74
2021/05/20 03:20:39;;;;;;;1.40;1.30;;;11.50;99.90;;;;;;5053608;28;20253;-75
2021/05/20 03:23:05;;;;;;;1.80;1.20;;;11.60;99.90;;;;;;5075888;28;20256;-75
2021/05/20 03:25:34;;;;;;;1.70;1.30;;;11.60;99.90;;;;;;5035982;28;20222;-75
2021/05/20 03:28:00;;;;;;;1.00;1.00;;;11.60;99.90;;;;;;5059376;28;20211;-75
2021/05/20 03:30:25;;;;;;;1.00;1.00;;;11.60;99.90;;;;;;5053545;28;20449;-75
2021/05/20 03:32:51;;;;;;;0.93;0.90;;;11.70;99.90;;;;;;5053907;28;20578;-74
2021/05/20 03:35:17;;;;;;;1.20;1.10;;;11.70;99.90;;;;;;5047381;28;20281;-75
2021/05/20 03:37:43;;;;;;;2.17;1.63;;;11.70;99.90;;;;;;5040142;28;20690;-75
2021/05/20 03:40:08;;;;;;;1.27;1.17;;;11.60;99.90;;;;;;5047535;28;20208;-75
2021/05/20 03:42:35;;;;;;;0.93;0.80;;;11.60;99.90;;;;;;5020567;28;20187;-74
2021/05/20 03:45:01;;;;;;;1.80;1.10;;;11.60;99.90;;;;;;5036258;28;20303;-75
2021/05/20 03:47:27;;;;;;;1.10;1.00;;;11.60;99.90;;;;;;5021147;28;21052;-75
2021/05/20 03:49:52;;;;;;;1.20;1.03;;;11.60;99.90;;;;;;5020081;28;20453;-75
2021/05/20 03:52:18;;;;;;;1.50;1.40;;;11.60;99.90;;;;;;5060699;28;20183;-75
2021/05/20 03:54:44;;;;;;;1.43;1.07;;;11.60;99.90;;;;;;5036199;28;20204;-75
2021/05/20 03:57:10;;;;;;;5.03;1.10;;;11.60;99.90;;;;;;5074104;28;20229;-73
2021/05/20 03:59:36;;;;;;;1.00;1.00;;;11.60;99.90;;;;;;5061463;28;20190;-73
2021/05/20 04:02:02;;;;;;;2.93;1.40;;;11.60;99.90;;;;;;5029856;28;20427;-73
2021/05/20 04:04:28;;;;;;;2.30;1.20;;;11.60;99.90;;;;;;5070173;28;20197;-73
2021/05/20 04:06:54;;;;;;;2.50;1.50;;;11.60;99.90;;;;;;5037029;28;20480;-73
2021/05/20 04:09:19;;;;;;;2.43;1.40;;;11.60;99.90;;;;;;5020219;28;20186;-73
2021/05/20 04:11:45;;;;;;;1.40;1.30;;;11.60;99.90;;;;;;5036601;28;20534;-73
2021/05/20 04:14:11;;;;;;;1.30;1.13;;;11.60;99.90;;;;;;5036766;28;20211;-73
2021/05/20 04:16:36;;;;;;;2.97;1.77;;;11.60;99.90;;;;;;5053608;28;20192;-73
2021/05/20 04:19:04;;;;;;;1.00;0.83;;;11.60;99.90;;;;;;5020201;28;20187;-73
2021/05/20 04:21:30;;;;;;;1.40;1.30;;;11.60;99.90;;;;;;5036612;28;20257;-73
2021/05/20 04:23:56;;;;;;;1.47;1.20;;;11.60;99.90;;;;;;5028283;28;20492;-73
2021/05/20 04:26:21;;;;;;;1.33;1.23;;;11.60;99.90;;;;;;5052796;28;20869;-75
2021/05/20 04:28:50;;;;;;;1.43;1.00;;;11.60;99.90;;;;;;5062257;28;20217;-74
2021/05/20 04:31:17;;;;;;;1.03;0.97;;;11.60;99.90;;;;;;5035056;28;20212;-75
2021/05/20 04:33:42;;;;;;;1.57;1.47;;;11.60;99.90;;;;;;5050721;28;20461;-75
2021/05/20 04:36:09;;;;;;;0.90;0.90;;;11.60;99.90;;;;;;5071328;28;20506;-75
2021/05/20 04:38:35;;;;;;;1.17;1.07;;;11.60;99.90;;;;;;5049868;28;20534;-75
2021/05/20 04:41:00;;;;;;;1.30;1.20;;;11.60;99.90;;;;;;5060109;28;20444;-75
2021/05/20 04:43:26;;;;;;;1.80;0.90;;;11.60;99.90;;;;;;5020089;28;20436;-75
2021/05/20 04:45:52;;;;;;;1.40;1.30;;;11.50;99.90;;;;;;5073729;28;20183;-75
2021/05/20 04:48:18;;;;;;;1.83;1.20;;;11.50;99.90;;;;;;5068879;28;20179;-75
2021/05/20 04:50:43;;;;;;;0.93;0.90;;;11.50;99.90;;;;;;5041864;28;20286;-75
2021/05/20 04:53:09;;;;;;;1.20;1.00;;;11.60;99.90;;;;;;5032136;28;20191;-75
2021/05/20 04:55:35;;;;;;;1.40;1.13;;;11.60;99.90;;;;;;5023536;28;20282;-76
2021/05/20 04:58:01;;;;;;;0.60;0.60;;;11.60;99.90;;;;;;5056119;28;20191;-75
2021/05/20 05:00:26;;;;;;;1.20;1.10;;;11.60;99.90;;;;;;5035929;28;20298;-75
2021/05/20 05:02:52;;;;;;;0.73;0.73;;;11.60;99.90;;;;;;5077048;28;20209;-74
2021/05/20 05:05:18;;;;;;;0.80;0.77;;;11.70;99.90;;;;;;5053165;28;20659;-73
2021/05/20 05:07:44;;;;;;;1.80;1.00;;;11.70;99.90;;;;;;5072352;28;20234;-74
2021/05/20 05:10:11;;;;;;;2.27;1.00;;;11.70;99.90;;;;;;5074162;28;20273;-73
2021/05/20 05:12:37;;;;;;;0.80;0.80;;;11.70;99.90;;;;;;5056516;28;20777;-73
2021/05/20 05:15:06;;;;;;;2.20;0.90;;;11.70;99.90;;;;;;5026799;28;20862;-73
2021/05/20 05:17:32;;;;;;;1.20;1.00;;;11.70;99.90;;;;;;5068861;28;20190;-73
2021/05/20 05:19:58;;;;;;;1.53;1.07;;;11.60;99.90;;;;;;5023114;28;20449;-74
2021/05/20 05:22:24;;;;;;;0.80;0.80;;;11.60;99.90;;;;;;5062786;28;20187;-73
2021/05/20 05:24:50;;;;;;;1.20;1.10;;;11.60;99.90;;;;;;5038586;28;20522;-76
2021/05/20 05:27:16;;;;;;;1.10;1.00;;;11.60;99.90;;;;;;5053227;28;20199;-74
2021/05/20 05:29:43;;;;;;;1.20;1.10;;;11.60;99.90;;;;;;5045699;28;20673;-75
2021/05/20 05:32:10;;;;;;;0.80;0.80;;;11.60;99.90;;;;;;5039327;28;20631;-75
2021/05/20 05:34:36;;;;;;;1.10;1.00;;;11.60;99.90;;;;;;5057088;28;20429;-75
2021/05/20 05:37:02;;;;;;;1.90;1.40;;;11.60;99.90;;;;;;5058784;28;20516;-75
2021/05/20 05:39:28;;;;;;;1.60;1.20;;;11.60;99.90;;;;;;5021924;28;20567;-75
2021/05/20 05:41:54;;;;;;;0.87;0.87;;;11.60;99.90;;;;;;5060491;28;20280;-75
2021/05/20 05:44:20;;;;;;;1.00;1.00;;;11.60;99.90;;;;;;5021855;28;20620;-75
2021/05/20 05:46:45;;;;;;;1.13;0.80;;;11.60;99.90;;;;;;5038997;28;20211;-75
2021/05/20 05:49:31;;;;;;;2.00;1.37;;;11.70;99.90;;;;;;5055162;28;20187;-75
2021/05/20 05:52:04;;;;;;;1.20;1.07;;;11.70;99.90;;;;;;5045845;28;20187;-75
2021/05/20 05:54:30;;;;;;;1.27;1.17;;;11.70;99.90;;;;;;5057462;28;20453;-75
2021/05/20 05:56:56;;;;;;;1.37;1.00;;;11.70;99.90;;;;;;5066357;28;20430;-75
2021/05/20 05:59:21;;;;;;;1.17;1.17;;;11.70;99.90;;;;;;5023588;28;20278;-75
2021/05/20 06:01:47;;;;;;;1.40;1.20;;;11.70;99.90;;;;;;5046916;28;20652;-75
2021/05/20 06:04:15;;;;;;;1.97;1.80;;;11.70;99.90;;;;;;5056629;28;20183;-75
2021/05/20 06:06:45;;;;;;;2.67;2.43;;;11.70;99.90;;;;;;5079606;28;20248;-73
2021/05/20 06:09:12;;;;;;;1.80;1.70;;;11.80;99.90;;;;;;5033829;28;20529;-73
2021/05/20 06:11:38;;;;;;;3.07;2.07;;;11.80;99.90;;;;;;5034700;28;20492;-74
2021/05/20 06:14:09;;;;;;;3.07;2.10;;;11.80;99.90;;;;;;5072200;28;20774;-73
2021/05/20 06:16:35;;;;;;;5.87;2.60;;;11.80;99.90;;;;;;5054400;28;20429;-73
2021/05/20 06:19:02;;;;;;;4.13;3.70;;;11.90;99.90;;;;;;5047880;28;20457;-73
2021/05/20 06:21:28;;;;;;;2.97;2.70;;;11.90;99.90;;;;;;5061376;28;20491;-74
2021/05/20 06:23:54;;;;;;;3.13;2.80;;;11.90;99.90;;;;;;5015972;28;20856;-74
2021/05/20 06:26:19;;;;;;;3.10;2.80;;;11.90;99.90;;;;;;5071885;28;20306;-74
2021/05/20 06:28:45;;;;;;;3.40;3.00;;;12.00;99.90;;;;;;5034116;28;20180;-74
2021/05/20 06:31:11;;;;;;;4.00;3.00;;;12.00;99.90;;;;;;5044154;28;20689;-74
2021/05/20 06:33:37;;;;;;;4.20;3.20;;;12.00;99.90;;;;;;5015900;28;20195;-73
2021/05/20 06:36:03;;;;;;;3.93;2.90;;;12.00;99.90;;;;;;5037382;28;20214;-73
2021/05/20 06:38:29;;;;;;;3.77;3.03;;;12.00;99.90;;;;;;5029178;28;20229;-73
2021/05/20 06:40:55;;;;;;;3.43;2.70;;;12.00;99.90;;;;;;5054472;28;20520;-73
2021/05/20 06:43:21;;;;;;;5.00;3.50;;;12.10;99.90;;;;;;5069546;28;20179;-73
2021/05/20 06:45:47;;;;;;;3.70;3.00;;;12.10;99.90;;;;;;5068587;28;20456;-73
2021/05/20 06:48:17;;;;;;;2.97;2.67;;;12.10;99.90;;;;;;5032804;28;20477;-74
2021/05/20 06:50:43;;;;;;;5.37;3.70;;;12.10;99.90;;;;;;5031790;28;20438;-73
2021/05/20 06:53:10;;;;;;;4.10;3.20;;;12.10;99.90;;;;;;5035601;28;20537;-73
2021/05/20 06:55:36;;;;;;;3.10;2.80;;;12.20;99.90;;;;;;5032209;28;21016;-73
2021/05/20 07:00:35;;;;;;;4.40;3.10;;;12.20;99.90;;;;;;5055237;28;20476;-74
2021/05/20 07:03:00;;;;;;;3.03;2.47;;;12.20;99.90;;;;;;5031495;28;20425;-73
2021/05/20 07:05:26;;;;;;;5.37;3.40;;;12.30;99.90;;;;;;5047001;28;21002;-73
2021/05/20 07:07:52;;;;;;;6.90;3.80;;;12.30;99.90;;;;;;5050531;28;20310;-74
2021/05/20 07:10:18;;;;;;;3.90;3.47;;;12.30;99.90;;;;;;5049940;28;20211;-74
2021/05/20 07:12:44;;;;;;;3.43;3.00;;;12.30;99.90;;;;;;5057138;28;20472;-74
2021/05/20 07:15:10;;;;;;;4.70;3.90;;;12.40;99.90;;;;;;5064713;28;20194;-73
2021/05/20 07:17:36;;;;;;;4.07;3.37;;;12.40;99.90;;;;;;5072882;28;20433;-72
2021/05/20 07:20:04;;;;;;;4.07;3.70;;;12.40;99.90;;;;;;5063676;28;20863;-73
2021/05/20 07:22:29;;;;;;;4.40;3.50;;;12.40;99.90;;;;;;4998157;28;21000;-73
2021/05/20 07:24:55;;;;;;;3.60;3.23;;;12.50;99.90;;;;;;5061757;28;20425;-73
2021/05/20 07:27:21;;;;;;;3.83;3.10;;;12.50;99.90;;;;;;5018125;28;20264;-74
2021/05/20 07:29:46;;;;;;;3.43;3.13;;;12.50;99.90;;;;;;5017435;28;20203;-73
2021/05/20 07:32:18;;;;;;;3.30;2.70;;;12.50;99.90;;;;;;5034100;28;20215;-74
2021/05/20 07:34:43;;;;;;;4.40;3.77;;;12.60;99.90;;;;;;5018202;28;20187;-74
2021/05/20 07:37:10;;;;;;;3.73;3.30;;;12.60;99.90;;;;;;5070065;28;20418;-74
2021/05/20 07:39:36;;;;;;;3.07;2.70;;;12.70;99.90;;;;;;5052943;28;20187;-74
2021/05/20 07:42:02;;;;;;;4.63;3.20;;;12.70;99.90;;;;;;5053578;28;20426;-73
2021/05/20 07:44:28;;;;;;;6.37;3.77;;;12.70;99.90;;;;;;5023582;28;20436;-74
2021/05/20 07:46:56;;;;;;;4.03;3.63;;;12.80;99.90;;;;;;5044333;28;20943;-73
2021/05/20 07:49:22;;;;;;;4.87;4.30;;;12.80;99.90;;;;;;5034584;28;20602;-73
2021/05/20 07:51:47;;;;;;;2.83;2.63;;;12.90;99.90;;;;;;5038194;28;20477;-74
2021/05/20 07:54:13;;;;;;;5.50;3.90;;;12.90;99.90;;;;;;5043318;28;20202;-74
2021/05/20 07:56:38;;;;;;;6.53;4.43;;;13.00;99.90;;;;;;5050159;28;20195;-73
2021/05/20 07:59:04;;;;;;;5.20;4.37;;;13.00;99.90;;;;;;5042452;28;20194;-73
2021/05/20 08:01:31;;;;;;;5.77;4.30;;;13.00;99.90;;;;;;5027477;28;20214;-73
2021/05/20 08:04:03;;;;;;;4.00;3.53;;;13.00;99.90;;;;;;5006687;28;20333;-72
2021/05/20 08:06:37;;;;;;;5.00;3.83;;;13.10;99.90;;;;;;5010232;28;20477;-72
2021/05/20 08:11:47;;;;;;;5.80;3.80;;;13.20;99.90;;;;;;5069813;28;20942;-73
2021/05/20 08:14:13;;;;;;;5.53;4.00;;;13.20;99.90;;;;;;5041609;28;20422;-72
2021/05/20 08:16:39;;;;;;;5.63;4.57;;;13.20;99.90;;;;;;5035308;28;20197;-73
2021/05/20 08:19:04;;;;;;;3.80;3.20;;;13.30;99.90;;;;;;5019617;28;20183;-73
2021/05/20 08:21:30;;;;;;;8.30;3.10;;;13.30;99.90;;;;;;5033926;28;20701;-72
2021/05/20 08:23:56;;;;;;;4.60;3.37;;;13.30;99.90;;;;;;5056524;28;20590;-73
2021/05/20 08:26:25;;;;;;;3.83;3.50;;;13.40;99.90;;;;;;5066513;28;20204;-73
2021/05/20 08:28:52;;;;;;;3.53;3.23;;;13.40;99.90;;;;;;5032711;28;20701;-73
2021/05/20 08:31:18;;;;;;;4.47;3.93;;;13.50;99.90;;;;;;5084749;28;20457;-72
2021/05/20 08:33:46;;;;;;;4.57;3.30;;;13.50;99.90;;;;;;5030503;28;20474;-72
2021/05/20 08:36:11;;;;;;;5.70;4.00;;;13.50;99.90;;;;;;5054831;28;20473;-73
2021/05/20 08:38:38;;;;;;;3.63;3.10;;;13.50;99.90;;;;;;5024318;28;20464;-72
2021/05/20 08:41:04;;;;;;;4.87;4.33;;;13.60;99.90;;;;;;5057552;28;20420;-72
2021/05/20 08:43:30;;;;;;;5.70;4.80;;;13.60;99.90;;;;;;5045424;28;20490;-72
2021/05/20 08:45:56;;;;;;;3.87;2.97;;;13.60;99.90;;;;;;5061841;28;20957;-73
2021/05/20 08:48:22;;;;;;;5.43;4.60;;;13.60;99.90;;;;;;5055992;28;20237;-73
2021/05/20 08:50:47;;;;;;;5.43;3.30;;;13.60;99.90;;;;;;5069761;28;20447;-72
2021/05/20 08:53:13;;;;;;;3.17;2.90;;;13.70;99.90;;;;;;5050397;28;20241;-72
2021/05/20 08:55:39;;;;;;;6.67;3.10;;;13.70;99.90;;;;;;5032389;28;20601;-71
2021/05/20 08:58:10;;;;;;;3.63;2.80;;;13.80;99.90;;;;;;5049410;28;20203;-72
2021/05/20 09:00:36;;;;;;;3.80;3.10;;;13.80;99.90;;;;;;5040625;28;20454;-72
2021/05/20 09:03:07;;;;;;;4.00;2.93;;;13.90;99.90;;;;;;5015709;28;20441;-72
2021/05/20 09:05:32;;;;;;;2.73;2.40;;;13.90;99.90;;;;;;5031826;28;20434;-72
2021/05/20 09:08:01;;;;;;;2.50;2.30;;;13.90;99.90;;;;;;5031704;28;20488;-73
2021/05/20 09:10:32;;;;;;;3.70;3.00;;;14.00;99.90;;;;;;5075359;28;20663;-73
2021/05/20 09:13:15;;;;;;;3.90;3.33;;;14.00;99.90;;;;;;5017664;28;20437;-73
2021/05/20 09:15:42;;;;;;;3.10;2.80;;;14.00;99.90;;;;;;5065857;28;20524;-72
2021/05/20 09:18:18;;;;;;;6.47;3.60;;;14.10;99.90;;;;;;5047599;28;20427;-73
2021/05/20 09:20:46;;;;;;;3.27;2.73;;;14.10;99.90;;;;;;5033818;28;20475;-73
2021/05/20 09:23:18;;;;;;;2.63;2.43;;;14.20;99.90;;;;;;5052128;28;20529;-73
2021/05/20 09:25:46;;;;;;;4.87;2.57;;;14.30;99.90;;;;;;5068087;28;21031;-73
2021/05/20 09:28:14;;;;;;;3.83;2.80;;;14.40;99.90;;;;;;5063192;28;20465;-73
2021/05/20 09:30:45;;;;;;;2.80;2.37;;;14.50;99.90;;;;;;5029696;28;20556;-73
2021/05/20 09:33:15;;;;;;;3.70;2.57;;;14.50;99.90;;;;;;5072467;28;20465;-73
2021/05/20 09:35:43;;;;;;;2.70;2.10;;;14.60;99.90;;;;;;5046310;28;20418;-73
2021/05/20 09:38:10;;;;;;;3.40;3.00;;;14.60;99.90;;;;;;5063628;28;20456;-73
2021/05/20 09:40:45;;;;;;;3.97;2.67;;;14.70;99.90;;;;;;5064772;28;20537;-72
2021/05/20 09:43:33;;;;;;;2.83;2.57;;;14.80;99.90;;;;;;5071272;28;20948;-72
2021/05/20 09:46:00;;;;;;;2.70;2.50;;;14.90;99.90;;;;;;5045512;28;20500;-73
2021/05/20 09:48:33;;;;;;;3.60;2.63;;;15.00;99.90;;;;;;5050834;28;20510;-73
2021/05/20 09:50:59;;;;;;;2.67;2.47;;;15.00;99.90;;;;;;5055625;28;20438;-73
2021/05/20 09:53:27;;;;;;;2.73;2.50;;;15.20;99.90;;;;;;5072020;28;20440;-73
2021/05/20 09:55:55;;;;;;;2.20;2.00;;;15.40;99.90;;;;;;5055427;28;20183;-73
2021/05/20 09:58:27;;;;;;;3.70;2.20;;;15.50;99.90;;;;;;5063913;28;20441;-73
2021/05/20 10:01:00;;;;;;;2.07;1.87;;;15.70;99.90;;;;;;5031452;28;20462;-73
2021/05/20 10:03:27;;;;;;;2.57;2.43;;;15.80;99.90;;;;;;5072330;28;20425;-72
2021/05/20 10:05:59;;;;;;;2.23;2.03;;;16.00;99.90;;;;;;5052667;28;20448;-73
2021/05/20 10:08:26;;;;;;;2.67;2.47;;;16.10;99.90;;;;;;5082012;28;20470;-71
2021/05/20 10:10:54;;;;;;;2.57;2.03;;;16.20;99.90;;;;;;5029749;28;20486;-73
2021/05/20 10:13:25;;;;;;;2.80;2.10;;;16.50;99.90;;;;;;5060301;28;20485;-73
2021/05/20 10:15:52;;;;;;;2.40;2.20;;;16.60;99.90;;;;;;5072288;28;20795;-73
2021/05/20 10:18:22;;;;;;;3.50;2.10;;;16.70;99.90;;;;;;5051709;28;21008;-73
2021/05/20 10:20:52;;;;;;;2.30;2.10;;;16.70;99.90;;;;;;5035344;28;20457;-73
2021/05/20 10:23:20;;;;;;;1.80;1.70;;;16.80;99.90;;;;;;5062080;28;20437;-73
2021/05/20 10:25:47;;;;;;;4.80;2.50;;;16.90;99.90;;;;;;5054251;28;20445;-73
2021/05/20 10:28:15;;;;;;;2.30;2.10;;;16.90;99.90;;;;;;5014270;28;20817;-73
2021/05/20 10:30:44;;;;;;;2.70;2.20;;;17.00;99.90;;;;;;5033490;28;20457;-73
2021/05/20 10:33:10;;;;;;;2.70;2.50;;;17.10;99.90;;;;;;5065487;28;20448;-73
2021/05/20 10:35:44;;;;;;;3.40;2.10;;;17.10;99.90;;;;;;5028810;28;20460;-73
2021/05/20 10:38:12;;;;;;;2.40;2.13;;;17.10;99.90;;;;;;5024571;28;20417;-73
2021/05/20 10:40:37;;;;;;;2.27;2.00;;;17.20;99.90;;;;;;5015701;28;20876;-73
2021/05/20 10:43:18;;;;;;;1.80;1.70;;;17.20;99.90;;;;;;5061627;28;20513;-73
2021/05/20 10:46:02;;;;;;;1.53;1.43;;;17.30;99.90;;;;;;5061643;28;20726;-73
2021/05/20 10:48:32;;;;;;;2.33;1.53;;;17.60;99.90;;;;;;5050280;28;20461;-73
2021/05/20 10:51:00;;;;;;;1.73;1.53;;;17.80;99.90;;;;;;5062412;28;20650;-73
2021/05/20 10:53:38;;;;;;;3.40;1.50;;;17.80;99.90;;;;;;5071184;28;20460;-72
2021/05/20 10:56:04;;;;;;;1.90;1.80;;;17.90;99.90;;;;;;5075695;28;20438;-73
2021/05/20 10:58:31;;;;;;;1.43;1.33;;;18.00;99.90;;;;;;5053144;28;20484;-72
2021/05/20 11:00:57;;;;;;;2.37;1.80;;;18.00;99.90;;;;;;5046294;28;21179;-72
2021/05/20 11:03:51;;;;;;;1.80;1.70;;;18.10;99.90;;;;;;5060396;28;20453;-72
2021/05/20 11:06:18;;;;;;;1.53;1.43;;;18.20;99.90;;;;;;5039970;28;20200;-73
2021/05/20 11:08:47;;;;;;;1.40;1.30;;;18.40;99.90;;;;;;5019536;28;20962;-73
2021/05/20 11:11:31;;;;;;;1.20;1.10;;;18.60;99.90;;;;;;5042950;28;20464;-73
2021/05/20 11:14:26;;;;;;;1.30;1.10;;;18.70;99.90;;;;;;5069879;28;20521;-73
2021/05/20 11:16:52;;;;;;;2.30;1.30;;;18.70;99.90;;;;;;5069516;28;20457;-73
2021/05/20 11:19:22;;;;;;;1.13;1.00;;;18.70;99.90;;;;;;5036400;28;20521;-72
2021/05/20 11:21:58;;;;;;;1.30;1.20;;;18.60;99.90;;;;;;5039108;28;20426;-72
2021/05/20 11:24:26;;;;;;;1.17;1.07;;;18.60;99.90;;;;;;5048989;28;20479;-73
2021/05/20 11:26:53;;;;;;;1.43;1.33;;;18.60;99.90;;;;;;5018239;28;20453;-72
2021/05/20 11:29:26;;;;;;;1.40;1.30;;;18.60;99.90;;;;;;5053090;28;20452;-72
2021/05/20 23:14:38;;;;;;;1.90;1.40;;;14.90;99.90;;;;;;5004489;28;20413;-90
2021/05/20 23:26:40;;;;;;;2.50;1.60;;;15.00;99.90;;;;;;5007036;28;20425;-91
2021/05/20 23:30:41;;;;;;;1.50;1.40;;;14.90;99.90;;;;;;5010655;28;20502;-91
2021/05/20 23:38:46;;;;;;;1.23;1.13;;;14.80;99.90;;;;;;5010188;28;20424;-90
2021/05/20 23:46:56;;;;;;;1.87;1.77;;;14.80;99.90;;;;;;4977055;28;20824;-91
